sensor_id;sensor_type;location;lat;lon;timestamp;temperature;humidity
49242;DHT22;35079;52.704;13.814;2023-07-20T00:02:23;15.30;99.90
49242;DHT22;35079;52.704;13.814;2023-07-20T00:04:49;15.30;99.90
49242;DHT22;35079;52.704;13.814;2023-07-20T00:07:14;15.30;99.90
49242;DHT22;35079;52.704;13.814;2023-07-20T00:09:40;15.20;99.90
49242;DHT22;35079;52.704;13.814;2023-07-20T00:12:06;15.20;99.90
49242;DHT22;35079;52.704;13.814;2023-07-20T00:14:32;15.10;99.90
49242;DHT22;35079;52.704;13.814;2023-07-20T00:16:57;15.10;99.90
49242;DHT22;35079;52.704;13.814;2023-07-20T00:19:27;15.10;99.90
49242;DHT22;35079;52.704;13.814;2023-07-20T00:21:53;15.10;99.90
49242;DHT22;35079;52.704;13.814;2023-07-20T00:24:20;15.20;99.90
49242;DHT22;35079;52.704;13.814;2023-07-20T00:26:45;15.20;99.90
49242;DHT22;35079;52.704;13.814;2023-07-20T00:29:11;15.20;99.90
49242;DHT22;35079;52.704;13.814;2023-07-20T00:31:37;15.20;99.90
49242;DHT22;35079;52.704;13.814;2023-07-20T00:34:06;15.00;99.90
49242;DHT22;35079;52.704;13.814;2023-07-20T00:36:32;15.10;99.90
49242;DHT22;35079;52.704;13.814;2023-07-20T00:38:58;15.00;99.90
49242;DHT22;35079;52.704;13.814;2023-07-20T00:41:23;14.90;99.90
49242;DHT22;35079;52.704;13.814;2023-07-20T00:43:50;14.80;99.90
49242;DHT22;35079;52.704;13.814;2023-07-20T00:46:16;14.80;99.90
49242;DHT22;35079;52.704;13.814;2023-07-20T00:48:42;14.70;99.90
49242;DHT22;35079;52.704;13.814;2023-07-20T00:51:08;14.80;99.90
49242;DHT22;35079;52.704;13.814;2023-07-20T00:53:34;14.60;99.90
49242;DHT22;35079;52.704;13.814;2023-07-20T00:56:00;14.60;99.90
49242;DHT22;35079;52.704;13.814;2023-07-20T00:58:25;14.70;99.90
49242;DHT22;35079;52.704;13.814;2023-07-20T01:00:51;14.70;99.90
49242;DHT22;35079;52.704;13.814;2023-07-20T01:03:17;14.60;99.90
49242;DHT22;35079;52.704;13.814;2023-07-20T01:06:10;14.60;99.90
49242;DHT22;35079;52.704;13.814;2023-07-20T01:08:51;14.60;99.90
49242;DHT22;35079;52.704;13.814;2023-07-20T01:11:30;14.50;99.90
49242;DHT22;35079;52.704;13.814;2023-07-20T01:13:57;14.50;99.90
49242;DHT22;35079;52.704;13.814;2023-07-20T01:16:23;14.50;99.90
49242;DHT22;35079;52.704;13.814;2023-07-20T01:18:49;14.50;99.90
49242;DHT22;35079;52.704;13.814;2023-07-20T01:21:22;14.50;99.90
49242;DHT22;35079;52.704;13.814;2023-07-20T01:24:56;14.40;99.90
49242;DHT22;35079;52.704;13.814;2023-07-20T01:27:06;14.40;99.90
49242;DHT22;35079;52.704;13.814;2023-07-20T01:30:19;14.20;99.90
49242;DHT22;35079;52.704;13.814;2023-07-20T01:32:49;14.30;99.90
49242;DHT22;35079;52.704;13.814;2023-07-20T01:35:16;14.10;99.90
49242;DHT22;35079;52.704;13.814;2023-07-20T01:37:45;14.20;99.90
49242;DHT22;35079;52.704;13.814;2023-07-20T01:40:14;14.00;99.90
49242;DHT22;35079;52.704;13.814;2023-07-20T01:42:44;14.00;99.90
49242;DHT22;35079;52.704;13.814;2023-07-20T01:45:11;14.00;99.90
49242;DHT22;35079;52.704;13.814;2023-07-20T01:47:37;14.10;99.90
49242;DHT22;35079;52.704;13.814;2023-07-20T01:50:02;14.00;99.90
49242;DHT22;35079;52.704;13.814;2023-07-20T01:52:28;14.00;99.90
49242;DHT22;35079;52.704;13.814;2023-07-20T01:54:53;14.10;99.90
49242;DHT22;35079;52.704;13.814;2023-07-20T01:57:19;13.90;99.90
49242;DHT22;35079;52.704;13.814;2023-07-20T01:59:45;13.90;99.90
49242;DHT22;35079;52.704;13.814;2023-07-20T02:02:11;14.10;99.90
49242;DHT22;35079;52.704;13.814;2023-07-20T02:04:37;14.20;99.90
49242;DHT22;35079;52.704;13.814;2023-07-20T02:07:02;14.40;99.90
49242;DHT22;35079;52.704;13.814;2023-07-20T02:09:28;14.30;99.90
49242;DHT22;35079;52.704;13.814;2023-07-20T02:11:53;14.50;99.90
49242;DHT22;35079;52.704;13.814;2023-07-20T02:14:19;14.60;99.90
49242;DHT22;35079;52.704;13.814;2023-07-20T02:16:44;14.70;99.90
49242;DHT22;35079;52.704;13.814;2023-07-20T02:19:10;14.80;99.90
49242;DHT22;35079;52.704;13.814;2023-07-20T02:21:36;14.90;99.90
49242;DHT22;35079;52.704;13.814;2023-07-20T02:24:01;14.90;99.90
49242;DHT22;35079;52.704;13.814;2023-07-20T02:26:27;14.90;99.90
49242;DHT22;35079;52.704;13.814;2023-07-20T02:28:53;14.90;99.90
49242;DHT22;35079;52.704;13.814;2023-07-20T02:31:19;14.80;99.90
49242;DHT22;35079;52.704;13.814;2023-07-20T02:33:44;14.90;99.90
49242;DHT22;35079;52.704;13.814;2023-07-20T02:36:10;15.00;99.90
49242;DHT22;35079;52.704;13.814;2023-07-20T02:38:36;15.10;99.90
49242;DHT22;35079;52.704;13.814;2023-07-20T02:41:01;15.20;99.90
49242;DHT22;35079;52.704;13.814;2023-07-20T02:43:28;15.10;99.90
49242;DHT22;35079;52.704;13.814;2023-07-20T02:45:53;15.20;99.90
49242;DHT22;35079;52.704;13.814;2023-07-20T02:48:19;15.20;99.90
49242;DHT22;35079;52.704;13.814;2023-07-20T02:50:45;15.20;99.90
49242;DHT22;35079;52.704;13.814;2023-07-20T02:53:10;15.20;99.90
49242;DHT22;35079;52.704;13.814;2023-07-20T02:55:36;15.20;99.90
49242;DHT22;35079;52.704;13.814;2023-07-20T02:58:01;15.40;99.90
49242;DHT22;35079;52.704;13.814;2023-07-20T03:00:27;15.40;99.90
49242;DHT22;35079;52.704;13.814;2023-07-20T03:02:53;15.40;99.90
49242;DHT22;35079;52.704;13.814;2023-07-20T03:05:21;15.40;99.90
49242;DHT22;35079;52.704;13.814;2023-07-20T03:07:48;15.40;99.90
49242;DHT22;35079;52.704;13.814;2023-07-20T03:10:14;15.40;99.90
49242;DHT22;35079;52.704;13.814;2023-07-20T03:12:40;15.50;99.90
49242;DHT22;35079;52.704;13.814;2023-07-20T03:15:06;15.70;99.90
49242;DHT22;35079;52.704;13.814;2023-07-20T03:17:31;15.50;99.90
49242;DHT22;35079;52.704;13.814;2023-07-20T03:19:57;15.50;99.90
49242;DHT22;35079;52.704;13.814;2023-07-20T03:22:24;15.60;99.90
49242;DHT22;35079;52.704;13.814;2023-07-20T03:24:50;15.70;99.90
49242;DHT22;35079;52.704;13.814;2023-07-20T03:27:17;15.70;99.90
49242;DHT22;35079;52.704;13.814;2023-07-20T03:29:43;15.80;99.90
49242;DHT22;35079;52.704;13.814;2023-07-20T03:32:09;15.80;99.90
49242;DHT22;35079;52.704;13.814;2023-07-20T03:34:35;15.90;99.90
49242;DHT22;35079;52.704;13.814;2023-07-20T03:37:01;15.80;99.90
49242;DHT22;35079;52.704;13.814;2023-07-20T03:39:27;15.80;99.90
49242;DHT22;35079;52.704;13.814;2023-07-20T03:41:52;15.70;99.90
49242;DHT22;35079;52.704;13.814;2023-07-20T03:44:18;15.80;99.90
49242;DHT22;35079;52.704;13.814;2023-07-20T03:46:44;15.90;99.90
49242;DHT22;35079;52.704;13.814;2023-07-20T03:49:09;15.90;99.90
49242;DHT22;35079;52.704;13.814;2023-07-20T03:51:35;15.90;99.90
49242;DHT22;35079;52.704;13.814;2023-07-20T03:54:01;15.90;99.90
49242;DHT22;35079;52.704;13.814;2023-07-20T03:56:27;16.00;99.90
49242;DHT22;35079;52.704;13.814;2023-07-20T03:58:53;15.90;99.90
49242;DHT22;35079;52.704;13.814;2023-07-20T04:01:19;15.90;99.90
49242;DHT22;35079;52.704;13.814;2023-07-20T04:03:44;15.80;99.90
49242;DHT22;35079;52.704;13.814;2023-07-20T04:06:10;16.00;99.90
49242;DHT22;35079;52.704;13.814;2023-07-20T04:08:36;15.90;99.90
49242;DHT22;35079;52.704;13.814;2023-07-20T04:11:02;15.90;99.90
49242;DHT22;35079;52.704;13.814;2023-07-20T04:13:28;15.90;99.90
49242;DHT22;35079;52.704;13.814;2023-07-20T04:15:54;15.90;99.90
49242;DHT22;35079;52.704;13.814;2023-07-20T04:18:20;16.00;99.90
49242;DHT22;35079;52.704;13.814;2023-07-20T04:20:46;16.00;99.90
49242;DHT22;35079;52.704;13.814;2023-07-20T04:23:12;16.00;99.90
49242;DHT22;35079;52.704;13.814;2023-07-20T04:25:39;16.10;99.90
49242;DHT22;35079;52.704;13.814;2023-07-20T04:28:06;16.10;99.90
49242;DHT22;35079;52.704;13.814;2023-07-20T04:30:39;16.10;99.90
49242;DHT22;35079;52.704;13.814;2023-07-20T04:33:05;16.20;99.90
49242;DHT22;35079;52.704;13.814;2023-07-20T04:38:12;16.20;99.90
49242;DHT22;35079;52.704;13.814;2023-07-20T04:40:38;16.20;99.90
49242;DHT22;35079;52.704;13.814;2023-07-20T04:43:03;16.30;99.90
49242;DHT22;35079;52.704;13.814;2023-07-20T04:45:29;16.40;99.90
49242;DHT22;35079;52.704;13.814;2023-07-20T04:47:55;16.40;99.90
49242;DHT22;35079;52.704;13.814;2023-07-20T04:50:20;16.20;99.90
49242;DHT22;35079;52.704;13.814;2023-07-20T04:52:46;16.40;99.90
49242;DHT22;35079;52.704;13.814;2023-07-20T04:55:13;16.40;99.90
49242;DHT22;35079;52.704;13.814;2023-07-20T04:57:39;16.40;99.90
49242;DHT22;35079;52.704;13.814;2023-07-20T05:00:05;16.30;99.90
49242;DHT22;35079;52.704;13.814;2023-07-20T05:02:31;16.50;99.90
49242;DHT22;35079;52.704;13.814;2023-07-20T05:04:57;16.60;99.90
49242;DHT22;35079;52.704;13.814;2023-07-20T05:07:22;16.50;99.90
49242;DHT22;35079;52.704;13.814;2023-07-20T05:09:48;16.50;99.90
49242;DHT22;35079;52.704;13.814;2023-07-20T05:12:13;16.50;99.90
49242;DHT22;35079;52.704;13.814;2023-07-20T05:14:39;16.60;99.90
49242;DHT22;35079;52.704;13.814;2023-07-20T05:17:05;16.70;99.90
49242;DHT22;35079;52.704;13.814;2023-07-20T05:19:30;16.80;99.90
49242;DHT22;35079;52.704;13.814;2023-07-20T05:21:56;17.00;99.90
49242;DHT22;35079;52.704;13.814;2023-07-20T05:24:22;17.10;99.90
49242;DHT22;35079;52.704;13.814;2023-07-20T05:26:48;17.00;99.90
49242;DHT22;35079;52.704;13.814;2023-07-20T05:29:13;17.10;99.90
49242;DHT22;35079;52.704;13.814;2023-07-20T05:31:39;17.30;99.90
49242;DHT22;35079;52.704;13.814;2023-07-20T05:34:04;17.20;99.90
49242;DHT22;35079;52.704;13.814;2023-07-20T05:36:30;17.20;99.90
49242;DHT22;35079;52.704;13.814;2023-07-20T05:38:56;17.20;99.90
49242;DHT22;35079;52.704;13.814;2023-07-20T05:41:22;17.30;99.90
49242;DHT22;35079;52.704;13.814;2023-07-20T05:43:48;17.30;99.90
49242;DHT22;35079;52.704;13.814;2023-07-20T05:46:13;17.40;99.90
49242;DHT22;35079;52.704;13.814;2023-07-20T05:48:39;17.50;99.90
49242;DHT22;35079;52.704;13.814;2023-07-20T05:51:05;17.40;99.90
49242;DHT22;35079;52.704;13.814;2023-07-20T05:53:31;17.60;99.90
49242;DHT22;35079;52.704;13.814;2023-07-20T05:55:56;17.60;99.90
49242;DHT22;35079;52.704;13.814;2023-07-20T05:58:22;17.70;99.90
49242;DHT22;35079;52.704;13.814;2023-07-20T06:00:49;17.80;99.90
49242;DHT22;35079;52.704;13.814;2023-07-20T06:03:15;17.80;99.90
49242;DHT22;35079;52.704;13.814;2023-07-20T06:05:42;17.90;99.90
49242;DHT22;35079;52.704;13.814;2023-07-20T06:08:08;17.90;99.90
49242;DHT22;35079;52.704;13.814;2023-07-20T06:10:33;17.90;99.90
49242;DHT22;35079;52.704;13.814;2023-07-20T06:12:59;17.90;99.90
49242;DHT22;35079;52.704;13.814;2023-07-20T06:17:51;17.80;99.90
49242;DHT22;35079;52.704;13.814;2023-07-20T06:20:17;17.80;99.90
49242;DHT22;35079;52.704;13.814;2023-07-20T06:22:44;17.90;99.90
49242;DHT22;35079;52.704;13.814;2023-07-20T06:25:10;18.00;99.90
49242;DHT22;35079;52.704;13.814;2023-07-20T06:27:36;18.10;99.90
49242;DHT22;35079;52.704;13.814;2023-07-20T06:30:02;18.20;99.90
49242;DHT22;35079;52.704;13.814;2023-07-20T06:32:27;18.20;99.90
49242;DHT22;35079;52.704;13.814;2023-07-20T06:34:53;18.30;99.90
49242;DHT22;35079;52.704;13.814;2023-07-20T06:37:19;18.30;99.90
49242;DHT22;35079;52.704;13.814;2023-07-20T06:39:45;18.10;99.90
49242;DHT22;35079;52.704;13.814;2023-07-20T06:42:11;18.10;99.90
49242;DHT22;35079;52.704;13.814;2023-07-20T06:44:37;17.90;99.90
49242;DHT22;35079;52.704;13.814;2023-07-20T06:47:02;17.90;99.90
49242;DHT22;35079;52.704;13.814;2023-07-20T06:49:28;18.00;99.90
49242;DHT22;35079;52.704;13.814;2023-07-20T06:51:54;18.20;99.90
49242;DHT22;35079;52.704;13.814;2023-07-20T06:54:20;18.40;99.90
49242;DHT22;35079;52.704;13.814;2023-07-20T06:56:45;18.80;99.90
49242;DHT22;35079;52.704;13.814;2023-07-20T06:59:11;19.10;99.90
49242;DHT22;35079;52.704;13.814;2023-07-20T07:01:37;19.10;99.90
49242;DHT22;35079;52.704;13.814;2023-07-20T07:04:02;19.00;99.90
49242;DHT22;35079;52.704;13.814;2023-07-20T07:06:29;18.80;99.90
49242;DHT22;35079;52.704;13.814;2023-07-20T07:08:54;18.70;99.90
49242;DHT22;35079;52.704;13.814;2023-07-20T07:11:21;19.00;99.90
49242;DHT22;35079;52.704;13.814;2023-07-20T07:13:50;18.90;99.90
49242;DHT22;35079;52.704;13.814;2023-07-20T07:16:17;18.90;99.90
49242;DHT22;35079;52.704;13.814;2023-07-20T07:18:45;18.90;99.90
49242;DHT22;35079;52.704;13.814;2023-07-20T07:21:11;18.80;99.90
49242;DHT22;35079;52.704;13.814;2023-07-20T07:23:38;18.60;99.90
49242;DHT22;35079;52.704;13.814;2023-07-20T07:26:04;18.90;99.90
49242;DHT22;35079;52.704;13.814;2023-07-20T07:28:29;19.30;99.90
49242;DHT22;35079;52.704;13.814;2023-07-20T07:30:55;19.60;99.90
49242;DHT22;35079;52.704;13.814;2023-07-20T07:33:22;19.60;99.90
49242;DHT22;35079;52.704;13.814;2023-07-20T07:35:49;19.60;99.90
49242;DHT22;35079;52.704;13.814;2023-07-20T07:38:14;19.40;99.90
49242;DHT22;35079;52.704;13.814;2023-07-20T07:40:40;19.60;99.90
49242;DHT22;35079;52.704;13.814;2023-07-20T07:43:05;19.30;99.90
49242;DHT22;35079;52.704;13.814;2023-07-20T07:45:34;19.40;99.90
49242;DHT22;35079;52.704;13.814;2023-07-20T07:48:04;19.80;99.90
49242;DHT22;35079;52.704;13.814;2023-07-20T07:50:30;20.00;99.90
49242;DHT22;35079;52.704;13.814;2023-07-20T07:52:55;20.30;99.90
49242;DHT22;35079;52.704;13.814;2023-07-20T07:55:21;20.50;99.90
49242;DHT22;35079;52.704;13.814;2023-07-20T07:57:47;20.50;99.90
49242;DHT22;35079;52.704;13.814;2023-07-20T08:00:13;20.70;99.90
49242;DHT22;35079;52.704;13.814;2023-07-20T08:02:43;20.60;99.90
49242;DHT22;35079;52.704;13.814;2023-07-20T08:05:09;20.60;99.90
49242;DHT22;35079;52.704;13.814;2023-07-20T08:07:38;20.60;99.90
49242;DHT22;35079;52.704;13.814;2023-07-20T08:10:05;20.30;99.90
49242;DHT22;35079;52.704;13.814;2023-07-20T08:12:31;20.10;99.90
49242;DHT22;35079;52.704;13.814;2023-07-20T08:14:57;20.10;99.90
49242;DHT22;35079;52.704;13.814;2023-07-20T08:17:22;20.20;99.90
49242;DHT22;35079;52.704;13.814;2023-07-20T08:19:48;20.30;99.90
49242;DHT22;35079;52.704;13.814;2023-07-20T08:22:14;20.50;99.90
49242;DHT22;35079;52.704;13.814;2023-07-20T08:24:40;20.30;99.90
49242;DHT22;35079;52.704;13.814;2023-07-20T08:27:06;20.20;99.90
49242;DHT22;35079;52.704;13.814;2023-07-20T08:29:31;20.50;99.90
49242;DHT22;35079;52.704;13.814;2023-07-20T08:31:57;20.90;99.90
49242;DHT22;35079;52.704;13.814;2023-07-20T08:34:23;20.80;99.90
49242;DHT22;35079;52.704;13.814;2023-07-20T08:36:49;21.20;99.90
49242;DHT22;35079;52.704;13.814;2023-07-20T08:39:14;21.40;99.90
49242;DHT22;35079;52.704;13.814;2023-07-20T08:41:46;21.40;99.90
49242;DHT22;35079;52.704;13.814;2023-07-20T08:44:11;21.50;99.90
49242;DHT22;35079;52.704;13.814;2023-07-20T08:46:38;21.40;99.90
49242;DHT22;35079;52.704;13.814;2023-07-20T08:49:04;20.90;99.90
49242;DHT22;35079;52.704;13.814;2023-07-20T08:51:32;20.60;99.90
49242;DHT22;35079;52.704;13.814;2023-07-20T08:53:59;20.70;99.90
49242;DHT22;35079;52.704;13.814;2023-07-20T08:56:26;21.10;99.90
49242;DHT22;35079;52.704;13.814;2023-07-20T08:58:55;21.60;99.90
49242;DHT22;35079;52.704;13.814;2023-07-20T09:01:22;22.10;99.90
49242;DHT22;35079;52.704;13.814;2023-07-20T09:03:49;22.50;99.90
49242;DHT22;35079;52.704;13.814;2023-07-20T09:06:15;22.20;99.10
49242;DHT22;35079;52.704;13.814;2023-07-20T09:08:41;21.90;99.60
49242;DHT22;35079;52.704;13.814;2023-07-20T09:11:08;21.80;99.90
49242;DHT22;35079;52.704;13.814;2023-07-20T09:13:34;22.20;99.90
49242;DHT22;35079;52.704;13.814;2023-07-20T09:16:00;22.10;99.60
49242;DHT22;35079;52.704;13.814;2023-07-20T09:18:27;22.10;99.90
49242;DHT22;35079;52.704;13.814;2023-07-20T09:21:04;21.70;98.30
49242;DHT22;35079;52.704;13.814;2023-07-20T09:23:35;21.30;99.90
49242;DHT22;35079;52.704;13.814;2023-07-20T09:26:08;21.50;99.90
49242;DHT22;35079;52.704;13.814;2023-07-20T09:28:41;21.70;99.10
49242;DHT22;35079;52.704;13.814;2023-07-20T09:31:19;21.90;98.60
49242;DHT22;35079;52.704;13.814;2023-07-20T09:33:45;22.10;98.40
49242;DHT22;35079;52.704;13.814;2023-07-20T09:36:11;22.00;98.10
49242;DHT22;35079;52.704;13.814;2023-07-20T09:38:38;21.60;99.40
49242;DHT22;35079;52.704;13.814;2023-07-20T09:41:05;21.50;98.80
49242;DHT22;35079;52.704;13.814;2023-07-20T09:43:35;21.30;98.80
49242;DHT22;35079;52.704;13.814;2023-07-20T09:46:00;21.00;99.50
49242;DHT22;35079;52.704;13.814;2023-07-20T09:48:26;20.80;99.60
49242;DHT22;35079;52.704;13.814;2023-07-20T09:50:53;20.50;99.80
49242;DHT22;35079;52.704;13.814;2023-07-20T09:53:19;20.30;99.90
49242;DHT22;35079;52.704;13.814;2023-07-20T09:55:48;20.10;99.90
49242;DHT22;35079;52.704;13.814;2023-07-20T09:58:15;19.80;99.90
49242;DHT22;35079;52.704;13.814;2023-07-20T10:00:42;19.70;99.90
49242;DHT22;35079;52.704;13.814;2023-07-20T10:03:14;19.60;99.90
49242;DHT22;35079;52.704;13.814;2023-07-20T10:05:44;19.30;99.90
49242;DHT22;35079;52.704;13.814;2023-07-20T10:08:12;19.00;99.90
49242;DHT22;35079;52.704;13.814;2023-07-20T10:10:41;19.00;99.90
49242;DHT22;35079;52.704;13.814;2023-07-20T10:13:13;19.30;99.90
49242;DHT22;35079;52.704;13.814;2023-07-20T10:15:50;19.70;99.90
49242;DHT22;35079;52.704;13.814;2023-07-20T10:18:28;20.10;99.90
49242;DHT22;35079;52.704;13.814;2023-07-20T10:20:55;20.40;99.90
49242;DHT22;35079;52.704;13.814;2023-07-20T10:23:22;20.80;99.90
49242;DHT22;35079;52.704;13.814;2023-07-20T10:25:49;21.10;99.90
49242;DHT22;35079;52.704;13.814;2023-07-20T10:28:16;21.40;99.90
49242;DHT22;35079;52.704;13.814;2023-07-20T10:30:42;21.60;99.90
49242;DHT22;35079;52.704;13.814;2023-07-20T10:33:08;21.40;99.90
49242;DHT22;35079;52.704;13.814;2023-07-20T10:35:56;21.40;99.90
49242;DHT22;35079;52.704;13.814;2023-07-20T10:38:42;21.30;99.90
49242;DHT22;35079;52.704;13.814;2023-07-20T10:43:50;21.40;99.90
49242;DHT22;35079;52.704;13.814;2023-07-20T10:49:06;21.10;99.90
49242;DHT22;35079;52.704;13.814;2023-07-20T10:51:42;21.30;99.90
49242;DHT22;35079;52.704;13.814;2023-07-20T10:56:44;20.60;99.90
49242;DHT22;35079;52.704;13.814;2023-07-20T10:59:20;20.30;99.90
49242;DHT22;35079;52.704;13.814;2023-07-20T11:02:06;20.20;99.90
49242;DHT22;35079;52.704;13.814;2023-07-20T11:04:41;20.40;99.90
49242;DHT22;35079;52.704;13.814;2023-07-20T11:07:07;20.50;99.90
49242;DHT22;35079;52.704;13.814;2023-07-20T11:09:37;20.60;99.90
49242;DHT22;35079;52.704;13.814;2023-07-20T11:12:12;21.40;99.90
49242;DHT22;35079;52.704;13.814;2023-07-20T11:14:55;21.80;99.90
49242;DHT22;35079;52.704;13.814;2023-07-20T11:17:31;22.20;99.90
49242;DHT22;35079;52.704;13.814;2023-07-20T11:19:59;22.10;99.90
49242;DHT22;35079;52.704;13.814;2023-07-20T11:22:33;22.30;99.90
49242;DHT22;35079;52.704;13.814;2023-07-20T11:24:58;22.70;99.90
49242;DHT22;35079;52.704;13.814;2023-07-20T11:27:24;23.50;99.60
49242;DHT22;35079;52.704;13.814;2023-07-20T11:29:50;23.20;99.90
49242;DHT22;35079;52.704;13.814;2023-07-20T11:32:24;23.10;98.50
49242;DHT22;35079;52.704;13.814;2023-07-20T11:34:50;23.50;99.90
49242;DHT22;35079;52.704;13.814;2023-07-20T11:37:16;23.30;98.00
49242;DHT22;35079;52.704;13.814;2023-07-20T11:39:43;22.70;97.80
49242;DHT22;35079;52.704;13.814;2023-07-20T11:42:09;22.70;99.40
49242;DHT22;35079;52.704;13.814;2023-07-20T11:44:35;23.10;99.90
49242;DHT22;35079;52.704;13.814;2023-07-20T11:47:06;24.50;99.90
49242;DHT22;35079;52.704;13.814;2023-07-20T11:49:40;25.90;97.20
49242;DHT22;35079;52.704;13.814;2023-07-20T11:52:08;26.60;94.40
49242;DHT22;35079;52.704;13.814;2023-07-20T11:54:35;27.30;92.80
49242;DHT22;35079;52.704;13.814;2023-07-20T11:57:02;27.80;91.10
49242;DHT22;35079;52.704;13.814;2023-07-20T11:59:27;28.00;90.20
49242;DHT22;35079;52.704;13.814;2023-07-20T12:01:53;28.30;88.80
49242;DHT22;35079;52.704;13.814;2023-07-20T12:04:19;28.90;85.40
49242;DHT22;35079;52.704;13.814;2023-07-20T12:06:48;28.30;81.70
49242;DHT22;35079;52.704;13.814;2023-07-20T12:09:16;27.30;82.70
49242;DHT22;35079;52.704;13.814;2023-07-20T12:11:43;26.40;84.20
49242;DHT22;35079;52.704;13.814;2023-07-20T12:14:10;25.30;85.60
49242;DHT22;35079;52.704;13.814;2023-07-20T12:16:37;24.50;87.20
49242;DHT22;35079;52.704;13.814;2023-07-20T12:19:08;24.00;86.90
49242;DHT22;35079;52.704;13.814;2023-07-20T12:21:35;23.70;86.00
49242;DHT22;35079;52.704;13.814;2023-07-20T12:24:04;23.70;85.70
49242;DHT22;35079;52.704;13.814;2023-07-20T12:26:31;23.70;85.00
49242;DHT22;35079;52.704;13.814;2023-07-20T12:28:57;23.60;87.10
49242;DHT22;35079;52.704;13.814;2023-07-20T12:31:23;23.30;88.10
49242;DHT22;35079;52.704;13.814;2023-07-20T12:33:53;22.90;90.50
49242;DHT22;35079;52.704;13.814;2023-07-20T12:36:22;22.60;91.00
49242;DHT22;35079;52.704;13.814;2023-07-20T12:38:49;22.60;91.80
49242;DHT22;35079;52.704;13.814;2023-07-20T12:41:15;22.60;91.90
49242;DHT22;35079;52.704;13.814;2023-07-20T12:43:41;22.70;92.10
49242;DHT22;35079;52.704;13.814;2023-07-20T12:46:08;22.90;91.60
49242;DHT22;35079;52.704;13.814;2023-07-20T12:48:35;23.50;92.40
49242;DHT22;35079;52.704;13.814;2023-07-20T12:51:02;24.80;91.20
49242;DHT22;35079;52.704;13.814;2023-07-20T12:53:28;25.90;90.00
49242;DHT22;35079;52.704;13.814;2023-07-20T12:55:54;26.60;81.40
49242;DHT22;35079;52.704;13.814;2023-07-20T12:58:19;27.10;77.50
49242;DHT22;35079;52.704;13.814;2023-07-20T13:00:45;27.80;76.00
49242;DHT22;35079;52.704;13.814;2023-07-20T13:03:11;28.10;74.10
49242;DHT22;35079;52.704;13.814;2023-07-20T13:05:36;27.70;67.60
49242;DHT22;35079;52.704;13.814;2023-07-20T13:08:02;26.80;72.10
49242;DHT22;35079;52.704;13.814;2023-07-20T13:10:28;26.60;70.80
49242;DHT22;35079;52.704;13.814;2023-07-20T13:12:54;26.00;70.90
49242;DHT22;35079;52.704;13.814;2023-07-20T13:15:20;26.30;72.20
49242;DHT22;35079;52.704;13.814;2023-07-20T13:17:46;26.20;69.60
49242;DHT22;35079;52.704;13.814;2023-07-20T13:20:12;26.60;72.50
49242;DHT22;35079;52.704;13.814;2023-07-20T13:22:39;27.10;68.80
49242;DHT22;35079;52.704;13.814;2023-07-20T13:25:06;27.60;70.80
49242;DHT22;35079;52.704;13.814;2023-07-20T13:27:32;27.20;67.80
49242;DHT22;35079;52.704;13.814;2023-07-20T13:29:59;27.50;66.60
49242;DHT22;35079;52.704;13.814;2023-07-20T13:32:26;27.40;65.20
49242;DHT22;35079;52.704;13.814;2023-07-20T13:34:51;27.20;65.90
49242;DHT22;35079;52.704;13.814;2023-07-20T13:37:17;27.00;64.60
49242;DHT22;35079;52.704;13.814;2023-07-20T13:39:43;27.30;63.10
49242;DHT22;35079;52.704;13.814;2023-07-20T13:42:09;26.80;63.00
49242;DHT22;35079;52.704;13.814;2023-07-20T13:44:36;26.40;65.60
49242;DHT22;35079;52.704;13.814;2023-07-20T13:47:03;26.30;64.40
49242;DHT22;35079;52.704;13.814;2023-07-20T13:49:30;26.00;64.20
49242;DHT22;35079;52.704;13.814;2023-07-20T13:51:56;26.20;67.30
49242;DHT22;35079;52.704;13.814;2023-07-20T13:54:23;26.30;64.40
49242;DHT22;35079;52.704;13.814;2023-07-20T13:56:48;25.90;63.60
49242;DHT22;35079;52.704;13.814;2023-07-20T13:59:14;25.50;65.20
49242;DHT22;35079;52.704;13.814;2023-07-20T14:01:40;25.30;65.50
49242;DHT22;35079;52.704;13.814;2023-07-20T14:04:05;24.90;65.70
49242;DHT22;35079;52.704;13.814;2023-07-20T14:06:32;24.70;65.80
49242;DHT22;35079;52.704;13.814;2023-07-20T14:08:59;24.50;67.10
49242;DHT22;35079;52.704;13.814;2023-07-20T14:11:25;24.40;67.00
49242;DHT22;35079;52.704;13.814;2023-07-20T14:13:51;24.10;68.50
49242;DHT22;35079;52.704;13.814;2023-07-20T14:16:23;23.90;71.50
49242;DHT22;35079;52.704;13.814;2023-07-20T14:18:49;23.90;69.50
49242;DHT22;35079;52.704;13.814;2023-07-20T14:21:18;23.70;71.40
49242;DHT22;35079;52.704;13.814;2023-07-20T14:23:49;23.90;71.10
49242;DHT22;35079;52.704;13.814;2023-07-20T14:26:15;24.00;68.30
49242;DHT22;35079;52.704;13.814;2023-07-20T14:28:41;23.90;73.80
49242;DHT22;35079;52.704;13.814;2023-07-20T14:31:07;23.60;69.00
49242;DHT22;35079;52.704;13.814;2023-07-20T14:33:32;23.10;70.70
49242;DHT22;35079;52.704;13.814;2023-07-20T14:35:58;22.80;72.00
49242;DHT22;35079;52.704;13.814;2023-07-20T14:38:24;22.70;73.10
49242;DHT22;35079;52.704;13.814;2023-07-20T14:40:49;22.90;71.70
49242;DHT22;35079;52.704;13.814;2023-07-20T14:43:15;22.90;71.10
49242;DHT22;35079;52.704;13.814;2023-07-20T14:45:41;23.00;72.10
49242;DHT22;35079;52.704;13.814;2023-07-20T14:48:07;23.00;71.20
49242;DHT22;35079;52.704;13.814;2023-07-20T14:50:33;23.40;70.80
49242;DHT22;35079;52.704;13.814;2023-07-20T14:52:58;23.70;70.10
49242;DHT22;35079;52.704;13.814;2023-07-20T14:55:24;23.50;70.70
49242;DHT22;35079;52.704;13.814;2023-07-20T14:57:50;23.40;71.20
49242;DHT22;35079;52.704;13.814;2023-07-20T15:00:16;23.20;70.70
49242;DHT22;35079;52.704;13.814;2023-07-20T15:02:42;23.00;74.30
49242;DHT22;35079;52.704;13.814;2023-07-20T15:05:09;22.90;73.00
49242;DHT22;35079;52.704;13.814;2023-07-20T15:07:36;23.10;73.70
49242;DHT22;35079;52.704;13.814;2023-07-20T15:10:03;23.00;70.80
49242;DHT22;35079;52.704;13.814;2023-07-20T15:12:29;23.20;70.30
49242;DHT22;35079;52.704;13.814;2023-07-20T15:15:08;23.10;71.50
49242;DHT22;35079;52.704;13.814;2023-07-20T15:17:35;23.00;73.20
49242;DHT22;35079;52.704;13.814;2023-07-20T15:20:01;23.00;71.60
49242;DHT22;35079;52.704;13.814;2023-07-20T15:22:30;23.10;71.70
49242;DHT22;35079;52.704;13.814;2023-07-20T15:24:56;23.20;70.30
49242;DHT22;35079;52.704;13.814;2023-07-20T15:27:22;23.10;70.70
49242;DHT22;35079;52.704;13.814;2023-07-20T15:29:48;22.90;71.20